createdAt,value
2023-04-29T00:02:11.617Z,3.05
2023-04-29T00:05:13.655Z,3.30
2023-04-29T00:08:15.286Z,3.25
2023-04-29T00:11:16.831Z,3.05
2023-04-29T00:14:18.443Z,3.28
2023-04-29T00:17:19.898Z,3.05
2023-04-29T00:20:21.439Z,3.10
2023-04-29T00:23:23.084Z,3.10
2023-04-29T00:26:24.678Z,3.05
2023-04-29T00:29:27.656Z,3.00
2023-04-29T00:32:29.600Z,3.17
2023-04-29T00:35:31.137Z,2.90
2023-04-29T00:38:32.669Z,3.00
2023-04-29T00:41:34.264Z,2.88
2023-04-29T00:44:35.910Z,2.70
2023-04-29T00:47:38.949Z,2.80
2023-04-29T00:50:41.025Z,3.25
2023-04-29T00:53:42.978Z,3.10
2023-04-29T00:56:46.997Z,2.92
2023-04-29T00:59:49.912Z,2.95
2023-04-29T01:02:54.128Z,2.83
2023-04-29T01:06:46.103Z,2.83
2023-04-29T01:10:01.823Z,2.78
2023-04-29T01:13:13.142Z,2.85
2023-04-29T01:16:29.249Z,3.03
2023-04-29T01:19:56.851Z,3.25
2023-04-29T01:22:58.440Z,2.85
2023-04-29T01:26:00.678Z,2.88
2023-04-29T01:30:01.462Z,2.85
2023-04-29T01:33:15.195Z,2.95
2023-04-29T01:36:44.253Z,2.95
2023-04-29T01:39:51.820Z,2.70
2023-04-29T01:43:01.623Z,2.80
2023-04-29T01:46:09.070Z,2.55
2023-04-29T01:49:10.619Z,2.80
2023-04-29T01:52:12.956Z,2.70
2023-04-29T01:55:16.600Z,2.60
2023-04-29T01:58:26.740Z,2.60
2023-04-29T02:01:41.405Z,2.70
2023-04-29T02:04:43.659Z,2.60
2023-04-29T02:07:45.569Z,3.05
2023-04-29T02:10:57.837Z,3.10
2023-04-29T02:14:12.513Z,2.58
2023-04-29T02:17:14.410Z,2.70
2023-04-29T02:20:17.402Z,3.00
2023-04-29T02:23:18.924Z,2.50
2023-04-29T02:26:20.679Z,2.50
2023-04-29T02:29:22.238Z,2.33
2023-04-29T02:32:24.044Z,2.65
2023-04-29T02:35:25.801Z,2.63
2023-04-29T02:38:28.982Z,2.70
2023-04-29T02:41:30.613Z,2.78
2023-04-29T02:44:32.310Z,2.80
2023-04-29T02:47:34.138Z,2.60
2023-04-29T02:50:35.698Z,2.78
2023-04-29T02:53:38.118Z,2.53
2023-04-29T02:56:39.821Z,2.38
2023-04-29T02:59:41.332Z,2.50
2023-04-29T03:02:43.003Z,2.55
2023-04-29T03:05:47.665Z,2.30
2023-04-29T03:08:50.474Z,2.80
2023-04-29T03:11:53.258Z,2.60
2023-04-29T03:14:54.711Z,2.25
2023-04-29T03:17:59.707Z,2.53
2023-04-29T03:21:01.301Z,2.67
2023-04-29T03:24:02.896Z,2.45
2023-04-29T03:27:08.343Z,2.50
2023-04-29T03:30:10.162Z,2.47
2023-04-29T03:33:18.155Z,2.65
2023-04-29T03:36:19.789Z,2.70
2023-04-29T03:39:32.109Z,2.78
2023-04-29T03:42:33.557Z,2.47
2023-04-29T03:45:35.295Z,2.33
2023-04-29T03:48:37.716Z,2.72
2023-04-29T03:51:39.892Z,2.65
2023-04-29T03:54:47.184Z,2.88
2023-04-29T03:57:48.746Z,2.58
2023-04-29T04:00:52.282Z,2.47
2023-04-29T04:03:57.955Z,2.33
2023-04-29T04:06:59.584Z,2.55
2023-04-29T04:10:06.142Z,2.72
2023-04-29T04:13:07.978Z,2.60
2023-04-29T04:16:10.955Z,2.50
2023-04-29T04:19:12.517Z,2.70
2023-04-29T04:22:18.102Z,2.67
2023-04-29T04:25:33.694Z,2.60
2023-04-29T04:28:49.212Z,2.38
2023-04-29T04:31:57.577Z,2.50
2023-04-29T04:34:59.845Z,2.65
2023-04-29T04:38:01.623Z,2.75
2023-04-29T04:41:08.049Z,2.45
2023-04-29T04:44:12.303Z,2.78
2023-04-29T04:47:21.203Z,2.70
2023-04-29T04:50:32.931Z,2.90
2023-04-29T04:53:35.269Z,2.83
2023-04-29T04:56:41.312Z,2.50
2023-04-29T04:59:43.350Z,2.53
2023-04-29T05:02:44.986Z,2.97
2023-04-29T05:05:46.617Z,2.92
2023-04-29T05:08:48.232Z,2.63
2023-04-29T05:11:51.088Z,2.70
2023-04-29T05:14:53.637Z,2.80
2023-04-29T05:17:55.486Z,2.85
2023-04-29T05:20:57.225Z,2.80
2023-04-29T05:23:58.952Z,2.92
2023-04-29T05:27:01.509Z,2.97
2023-04-29T05:30:03.359Z,2.95
2023-04-29T05:33:05.011Z,2.97
2023-04-29T05:36:07.221Z,2.70
2023-04-29T05:39:09.052Z,3.05
2023-04-29T05:42:11.118Z,3.25
2023-04-29T05:45:17.730Z,3.05
2023-04-29T05:48:19.208Z,3.13
2023-04-29T05:51:20.891Z,3.10
2023-04-29T05:54:23.753Z,2.90
2023-04-29T05:57:25.597Z,3.10
2023-04-29T06:00:28.542Z,2.92
2023-04-29T06:03:37.191Z,2.95
2023-04-29T06:06:57.724Z,3.40
2023-04-29T06:10:23.901Z,3.63
2023-04-29T06:13:26.243Z,3.65
2023-04-29T06:16:28.336Z,3.70
2023-04-29T06:19:30.031Z,3.17
2023-04-29T06:22:31.621Z,3.60
2023-04-29T06:25:34.080Z,3.58
2023-04-29T06:28:39.099Z,3.60
2023-04-29T06:31:40.873Z,3.33
2023-04-29T06:34:43.228Z,3.83
2023-04-29T06:38:10.912Z,3.47
2023-04-29T06:41:40.844Z,3.53
2023-04-29T06:45:05.795Z,3.40
2023-04-29T06:48:14.215Z,3.85
2023-04-29T06:51:22.653Z,3.17
2023-04-29T06:54:24.273Z,3.45
2023-04-29T06:57:25.723Z,3.47
2023-04-29T07:00:32.366Z,3.40
2023-04-29T07:03:33.929Z,3.60
2023-04-29T07:06:35.479Z,4.05
2023-04-29T07:09:39.357Z,6.72
2023-04-29T07:12:40.836Z,7.82
2023-04-29T07:15:42.308Z,9.27
2023-04-29T07:18:44.202Z,8.90
2023-04-29T07:21:46.166Z,9.15
2023-04-29T07:24:47.684Z,9.65
2023-04-29T07:27:49.264Z,9.00
2023-04-29T07:30:51.159Z,9.57
2023-04-29T07:33:53.001Z,8.45
2023-04-29T07:36:56.192Z,8.38
2023-04-29T07:39:57.906Z,7.32
2023-04-29T07:42:59.589Z,7.35
2023-04-29T07:46:01.313Z,7.35
2023-04-29T07:49:06.892Z,6.93
2023-04-29T07:52:09.995Z,6.50
2023-04-29T07:55:11.533Z,6.20
2023-04-29T07:58:13.082Z,6.45
2023-04-29T08:01:15.495Z,6.28
2023-04-29T08:04:17.262Z,6.07
2023-04-29T08:07:25.323Z,5.50
2023-04-29T08:10:27.212Z,6.38
2023-04-29T08:13:28.757Z,5.85
2023-04-29T08:16:30.378Z,5.72
2023-04-29T08:19:31.865Z,5.70
2023-04-29T08:22:33.677Z,5.00
2023-04-29T08:25:35.145Z,5.28
2023-04-29T08:28:36.603Z,4.95
2023-04-29T08:31:38.140Z,4.70
2023-04-29T08:34:41.527Z,5.07
2023-04-29T08:37:43.335Z,5.15
2023-04-29T08:40:47.056Z,4.88
2023-04-29T08:43:48.605Z,5.05
2023-04-29T08:46:51.108Z,5.05
2023-04-29T08:49:54.025Z,5.00
2023-04-29T08:52:56.130Z,5.00
2023-04-29T08:56:01.207Z,4.40
2023-04-29T08:59:02.931Z,4.88
2023-04-29T09:02:08.376Z,4.90
2023-04-29T09:05:11.288Z,5.05
2023-04-29T09:08:13.177Z,4.72
2023-04-29T09:11:15.125Z,4.75
2023-04-29T09:14:16.798Z,4.22
2023-04-29T09:17:18.410Z,4.80
2023-04-29T09:20:19.853Z,4.75
2023-04-29T09:23:37.259Z,5.38
2023-04-29T09:26:43.005Z,4.82
2023-04-29T09:30:01.013Z,4.90
2023-04-29T09:33:09.249Z,4.57
2023-04-29T09:36:10.916Z,4.40
2023-04-29T09:39:13.656Z,4.65
2023-04-29T09:42:15.157Z,4.40
2023-04-29T09:45:33.448Z,4.20
2023-04-29T09:48:35.429Z,3.95
2023-04-29T09:51:52.960Z,4.13
2023-04-29T09:55:05.702Z,4.57
2023-04-29T09:58:07.280Z,4.47
2023-04-29T10:01:09.670Z,3.92
2023-04-29T10:04:12.335Z,4.10
2023-04-29T10:07:17.709Z,4.50
2023-04-29T10:10:21.697Z,3.88
2023-04-29T10:13:27.242Z,4.20
2023-04-29T10:16:38.438Z,4.30
2023-04-29T10:19:58.700Z,4.30
2023-04-29T10:23:00.491Z,3.92
2023-04-29T10:26:03.573Z,4.10
2023-04-29T10:29:05.399Z,4.88
2023-04-29T10:32:13.463Z,4.22
2023-04-29T10:35:16.497Z,4.10
2023-04-29T10:38:28.032Z,4.13
2023-04-29T10:41:46.886Z,4.10
2023-04-29T10:45:22.679Z,4.32
2023-04-29T10:48:25.469Z,3.58
2023-04-29T10:51:34.953Z,4.20
2023-04-29T10:54:36.420Z,4.50
2023-04-29T10:57:37.886Z,3.97
2023-04-29T11:00:39.460Z,3.92
2023-04-29T11:03:55.800Z,4.05
2023-04-29T11:06:59.188Z,3.63
2023-04-29T11:10:02.502Z,4.03
2023-04-29T11:13:22.811Z,4.15
2023-04-29T11:16:29.855Z,4.22
2023-04-29T11:19:51.313Z,4.22
2023-04-29T11:22:53.610Z,4.18
2023-04-29T11:25:55.174Z,3.75
2023-04-29T11:28:58.275Z,3.75
2023-04-29T11:32:03.165Z,3.70
2023-04-29T11:35:15.013Z,3.70
2023-04-29T11:38:16.460Z,3.90
2023-04-29T11:41:18.090Z,3.85
2023-04-29T11:44:23.025Z,3.70
2023-04-29T11:47:29.648Z,3.50
2023-04-29T11:50:32.763Z,3.67
2023-04-29T11:53:34.688Z,3.90
2023-04-29T11:56:38.078Z,4.05
2023-04-29T11:59:42.255Z,3.45
2023-04-29T12:02:46.269Z,3.72
2023-04-29T12:05:55.162Z,3.10
2023-04-29T12:08:59.381Z,3.40
2023-04-29T12:12:01.464Z,3.72
2023-04-29T12:15:05.360Z,3.65
2023-04-29T12:18:18.782Z,3.90
2023-04-29T12:21:23.897Z,3.50
2023-04-29T12:24:25.514Z,3.47
2023-04-29T12:27:27.184Z,3.03
2023-04-29T12:30:28.701Z,3.63
2023-04-29T12:33:30.294Z,3.50
2023-04-29T12:36:34.871Z,3.33
2023-04-29T12:39:36.366Z,3.35
2023-04-29T12:42:39.850Z,3.10
2023-04-29T12:45:41.318Z,3.25
2023-04-29T12:48:43.691Z,3.20
2023-04-29T12:51:45.896Z,3.33
2023-04-29T12:54:47.364Z,3.42
2023-04-29T12:57:48.833Z,3.28
2023-04-29T13:00:50.693Z,3.58
2023-04-29T13:03:52.294Z,3.28
2023-04-29T13:07:00.010Z,3.20
2023-04-29T13:10:02.249Z,3.10
2023-04-29T13:13:03.965Z,3.20
2023-04-29T13:16:06.231Z,3.10
2023-04-29T13:19:25.652Z,3.03
2023-04-29T13:22:29.265Z,3.22
2023-04-29T13:25:30.895Z,3.28
2023-04-29T13:28:32.358Z,2.97
2023-04-29T13:31:33.901Z,2.95
2023-04-29T13:34:35.885Z,2.92
2023-04-29T13:37:37.515Z,2.95
2023-04-29T13:40:45.254Z,2.92
2023-04-29T13:43:50.773Z,3.55
2023-04-29T13:46:52.652Z,3.25
2023-04-29T13:50:32.882Z,2.72
2023-04-29T14:02:30.923Z,3.03
2023-04-29T14:05:33.278Z,2.85
2023-04-29T14:08:34.969Z,2.70
2023-04-29T14:11:36.985Z,2.67
2023-04-29T14:14:38.674Z,2.70
2023-04-29T14:17:40.578Z,2.70
2023-04-29T14:20:42.092Z,2.75
2023-04-29T14:23:43.649Z,2.70
2023-04-29T14:26:45.099Z,2.60
2023-04-29T14:29:46.731Z,2.80
2023-04-29T14:32:48.263Z,2.90
2023-04-29T14:35:50.109Z,2.78
2023-04-29T14:38:51.799Z,2.60
2023-04-29T14:41:53.300Z,2.70
2023-04-29T14:44:55.044Z,2.72
2023-04-29T14:47:56.764Z,2.80
2023-04-29T14:50:58.305Z,2.80
2023-04-29T14:53:59.894Z,2.60
2023-04-29T14:57:02.142Z,2.63
2023-04-29T15:00:04.620Z,2.92
2023-04-29T15:03:06.230Z,2.90
2023-04-29T15:06:07.837Z,2.50
2023-04-29T15:09:09.340Z,2.60
2023-04-29T15:12:10.861Z,2.95
2023-04-29T15:15:12.641Z,2.40
2023-04-29T15:18:14.247Z,2.40
2023-04-29T15:21:15.833Z,2.58
2023-04-29T15:24:17.507Z,2.55
2023-04-29T15:27:19.021Z,2.53
2023-04-29T15:30:20.490Z,2.60
2023-04-29T15:33:22.073Z,2.50
2023-04-29T15:36:32.596Z,2.80
2023-04-29T15:39:34.127Z,2.97
2023-04-29T15:42:35.674Z,2.70
2023-04-29T15:45:37.141Z,2.30
2023-04-29T15:48:38.643Z,2.30
2023-04-29T15:51:40.090Z,2.33
2023-04-29T15:54:41.681Z,2.40
2023-04-29T15:57:43.279Z,2.28
2023-04-29T16:00:44.837Z,2.38
2023-04-29T16:03:46.359Z,2.60
2023-04-29T16:06:48.056Z,2.60
2023-04-29T16:09:49.540Z,2.47
2023-04-29T16:12:51.066Z,2.40
2023-04-29T16:15:52.643Z,2.53
2023-04-29T16:18:54.553Z,2.55
2023-04-29T16:21:56.057Z,2.28
2023-04-29T16:24:57.535Z,2.42
2023-04-29T16:27:59.073Z,2.25
2023-04-29T16:31:00.820Z,2.30
2023-04-29T16:34:03.218Z,2.55
2023-04-29T16:37:05.049Z,2.65
2023-04-29T16:40:07.425Z,2.30
2023-04-29T16:43:08.984Z,2.47
2023-04-29T16:46:10.678Z,2.20
2023-04-29T18:02:41.613Z,2.72
2023-04-29T18:05:43.935Z,2.67
2023-04-29T18:08:45.918Z,2.88
2023-04-29T18:11:47.427Z,2.95
2023-04-29T18:14:48.989Z,2.10
2023-04-29T18:17:50.937Z,2.33
2023-04-29T18:20:52.553Z,2.20
2023-04-29T18:23:58.326Z,2.10
2023-04-29T18:27:00.058Z,1.98
2023-04-29T18:30:02.148Z,1.95
2023-04-29T18:33:03.713Z,1.98
2023-04-29T18:36:05.672Z,1.80
2023-04-29T18:39:07.244Z,2.00
2023-04-29T18:42:08.856Z,1.73
2023-04-29T18:45:10.844Z,1.98
2023-04-29T18:48:12.955Z,1.83
2023-04-29T18:51:14.505Z,1.80
2023-04-29T18:54:18.059Z,2.13
2023-04-29T18:57:19.626Z,2.20
2023-04-29T19:00:21.738Z,1.80
2023-04-29T19:03:23.413Z,2.05
2023-04-29T19:06:24.916Z,1.92
2023-04-29T19:09:27.901Z,1.70
2023-04-29T19:12:29.350Z,1.70
2023-04-29T19:15:31.956Z,1.80
2023-04-29T19:18:33.471Z,1.88
2023-04-29T19:21:35.939Z,1.90
2023-04-29T19:24:38.793Z,1.80
2023-04-29T19:27:48.704Z,1.83
2023-04-29T19:30:50.629Z,1.63
2023-04-29T19:33:52.390Z,1.85
2023-04-29T19:36:53.849Z,1.70
2023-04-29T19:39:55.554Z,1.92
2023-04-29T19:42:57.349Z,2.00
2023-04-29T19:45:58.886Z,1.60
2023-04-29T19:49:00.686Z,1.80
2023-04-29T19:52:02.178Z,1.48
2023-04-29T19:55:05.235Z,2.20
2023-04-29T19:58:07.242Z,1.60
2023-04-29T20:01:08.756Z,1.65
2023-04-29T20:04:12.421Z,1.60
2023-04-29T20:07:14.280Z,1.60
2023-04-29T20:10:16.588Z,1.75
2023-04-29T20:13:18.098Z,2.30
2023-04-29T20:16:19.797Z,1.70
2023-04-29T20:19:21.304Z,1.65
2023-04-29T20:22:23.038Z,1.60
2023-04-29T20:25:25.692Z,1.75
2023-04-29T20:28:27.202Z,1.67
2023-04-29T20:31:28.990Z,1.63
2023-04-29T20:34:32.056Z,1.63
2023-04-29T20:37:33.636Z,1.80
2023-04-29T20:40:36.024Z,1.75
2023-04-29T20:43:37.540Z,1.65
2023-04-29T20:46:40.169Z,1.90
2023-04-29T20:49:42.737Z,1.40
2023-04-29T20:52:45.215Z,1.50
2023-04-29T20:55:46.949Z,1.60
2023-04-29T20:58:48.461Z,1.63
2023-04-29T21:01:51.284Z,1.40
2023-04-29T21:04:52.974Z,1.42
2023-04-29T21:07:54.531Z,1.50
2023-04-29T21:10:56.691Z,1.30
2023-04-29T21:13:58.214Z,1.50
2023-04-29T21:16:59.776Z,1.58
2023-04-29T21:20:01.382Z,1.20
2023-04-29T21:23:02.874Z,1.30
2023-04-29T21:26:04.945Z,1.45
2023-04-29T21:29:06.634Z,1.50
2023-04-29T21:32:08.641Z,1.30
2023-04-29T21:35:11.041Z,1.60
2023-04-29T21:38:12.588Z,1.50
2023-04-29T21:41:28.169Z,1.70
2023-04-29T21:44:29.829Z,1.40
2023-04-29T21:47:31.453Z,1.48
2023-04-29T21:50:32.970Z,1.30
2023-04-29T21:53:34.878Z,1.60
2023-04-29T21:56:36.522Z,1.70
2023-04-29T21:59:38.120Z,1.20
2023-04-29T22:02:42.720Z,1.40
2023-04-29T22:05:44.311Z,1.40
2023-04-29T22:08:46.049Z,1.30
2023-04-29T22:11:47.764Z,1.50
2023-04-29T22:14:49.321Z,1.45
2023-04-29T22:17:50.907Z,1.40
2023-04-29T22:20:53.150Z,1.35
2023-04-29T22:23:55.127Z,1.10
2023-04-29T22:26:56.710Z,1.40
2023-04-29T22:29:58.489Z,1.55
2023-04-29T22:33:00.042Z,1.30
2023-04-29T22:36:02.462Z,1.30
2023-04-29T22:39:04.058Z,1.40
2023-04-29T22:42:05.651Z,1.48
2023-04-29T22:45:10.987Z,1.95
